createdAt,value
2022-08-18T00:01:43.101Z,4.30
2022-08-18T00:04:29.891Z,3.73
2022-08-18T00:06:58.072Z,3.80
2022-08-18T00:09:28.972Z,3.87
2022-08-18T00:11:59.357Z,4.00
2022-08-18T00:14:26.507Z,3.93
2022-08-18T00:16:54.294Z,4.27
2022-08-18T00:19:27.847Z,3.80
2022-08-18T00:22:14.659Z,3.90
2022-08-18T00:24:48.384Z,3.93
2022-08-18T00:27:21.753Z,4.03
2022-08-18T00:29:51.057Z,4.07
2022-08-18T00:32:20.228Z,4.00
2022-08-18T00:34:47.421Z,4.07
2022-08-18T00:37:14.578Z,4.30
2022-08-18T00:39:46.026Z,4.03
2022-08-18T00:42:27.814Z,3.90
2022-08-18T00:44:58.939Z,4.80
2022-08-18T00:47:41.157Z,4.40
2022-08-18T00:50:13.542Z,4.10
2022-08-18T00:52:42.548Z,4.20
2022-08-18T00:55:09.794Z,4.13
2022-08-18T00:57:37.253Z,4.00
2022-08-18T01:00:15.117Z,3.93
2022-08-18T01:02:47.144Z,4.47
2022-08-18T01:05:17.105Z,4.30
2022-08-18T01:07:48.815Z,4.30
2022-08-18T01:10:17.637Z,4.33
2022-08-18T01:12:47.018Z,4.20
2022-08-18T01:15:29.330Z,3.97
2022-08-18T01:18:17.036Z,4.10
2022-08-18T01:21:20.420Z,4.50
2022-08-18T01:23:48.667Z,4.27
2022-08-18T01:26:16.997Z,4.07
2022-08-18T01:28:45.262Z,4.50
2022-08-18T01:31:13.858Z,4.33
2022-08-18T01:33:42.500Z,4.50
2022-08-18T01:36:17.293Z,4.70
2022-08-18T01:38:45.306Z,4.33
2022-08-18T01:41:27.054Z,4.37
2022-08-18T01:43:58.592Z,4.00
2022-08-18T01:46:26.390Z,4.47
2022-08-18T01:48:53.759Z,4.37
2022-08-18T01:51:38.112Z,4.53
2022-08-18T01:54:08.368Z,4.43
2022-08-18T01:56:36.743Z,4.87
2022-08-18T01:59:04.807Z,4.47
2022-08-18T02:01:36.325Z,4.40
2022-08-18T02:04:33.291Z,4.60
2022-08-18T02:06:55.882Z,4.43
2022-08-18T02:09:23.903Z,4.33
2022-08-18T02:11:53.615Z,4.53
2022-08-18T02:14:27.085Z,4.27
2022-08-18T02:17:02.150Z,4.50
2022-08-18T02:19:33.564Z,4.53
2022-08-18T02:22:00.711Z,4.33
2022-08-18T02:24:27.856Z,4.37
2022-08-18T02:26:54.991Z,5.10
2022-08-18T02:29:22.180Z,4.40
2022-08-18T02:31:49.329Z,4.50
2022-08-18T02:34:16.977Z,4.73
2022-08-18T02:36:44.211Z,4.40
2022-08-18T02:39:11.485Z,4.50
2022-08-18T02:41:38.616Z,4.90
2022-08-18T02:44:07.088Z,4.70
2022-08-18T02:46:34.211Z,4.63
2022-08-18T02:49:01.672Z,4.87
2022-08-18T02:51:29.090Z,4.60
2022-08-18T02:53:59.109Z,4.97
2022-08-18T02:56:40.504Z,4.67
2022-08-18T02:59:14.693Z,4.60
2022-08-18T03:01:44.114Z,4.40
2022-08-18T03:04:12.918Z,4.90
2022-08-18T03:06:40.429Z,4.80
2022-08-18T03:09:08.960Z,4.67
2022-08-18T03:11:36.631Z,5.00
2022-08-18T03:14:05.534Z,4.80
2022-08-18T03:16:33.171Z,5.00
2022-08-18T03:19:01.297Z,4.80
2022-08-18T03:21:30.119Z,4.80
2022-08-18T03:24:00.886Z,4.83
2022-08-18T03:26:29.997Z,4.70
2022-08-18T03:28:57.819Z,4.80
2022-08-18T03:31:27.800Z,4.93
2022-08-18T03:33:56.078Z,5.30
2022-08-18T03:36:28.682Z,4.97
2022-08-18T03:38:55.967Z,4.50
2022-08-18T03:41:43.906Z,4.50
2022-08-18T03:44:12.545Z,4.80
2022-08-18T03:46:41.423Z,4.90
2022-08-18T03:49:09.448Z,4.60
2022-08-18T03:51:36.971Z,4.37
2022-08-18T03:54:05.219Z,4.67
2022-08-18T03:56:34.554Z,4.67
2022-08-18T03:59:04.039Z,4.70
2022-08-18T04:01:32.995Z,4.53
2022-08-18T04:04:02.178Z,4.53
2022-08-18T04:06:31.118Z,5.07
2022-08-18T04:09:00.322Z,4.80
2022-08-18T04:11:28.525Z,4.70
2022-08-18T04:14:03.105Z,4.90
2022-08-18T04:16:32.353Z,5.07
2022-08-18T04:19:03.202Z,4.53
2022-08-18T04:21:31.556Z,4.80
2022-08-18T04:24:02.949Z,5.10
2022-08-18T04:26:31.415Z,4.83
2022-08-18T04:29:00.987Z,4.57
2022-08-18T04:31:29.583Z,4.47
2022-08-18T04:33:58.373Z,4.80
2022-08-18T04:36:25.781Z,4.70
2022-08-18T04:38:52.947Z,5.03
2022-08-18T04:41:27.215Z,5.00
2022-08-18T04:44:01.521Z,4.97
2022-08-18T04:46:29.427Z,5.03
2022-08-18T04:49:01.495Z,4.97
2022-08-18T04:52:31.038Z,5.10
2022-08-18T04:54:16.715Z,4.90
2022-08-18T04:56:43.960Z,5.00
2022-08-18T04:59:12.894Z,5.07
2022-08-18T05:01:42.139Z,5.20
2022-08-18T05:04:10.261Z,4.90
2022-08-18T05:06:37.528Z,4.90
2022-08-18T05:09:07.699Z,5.00
2022-08-18T05:11:35.503Z,5.20
2022-08-18T05:14:04.097Z,5.30
2022-08-18T05:16:36.481Z,4.87
2022-08-18T05:19:16.425Z,5.00
2022-08-18T05:21:49.602Z,5.30
2022-08-18T05:24:18.994Z,5.00
2022-08-18T05:26:46.345Z,5.50
2022-08-18T05:29:19.069Z,5.07
2022-08-18T05:31:47.537Z,4.90
2022-08-18T05:34:15.000Z,5.20
2022-08-18T05:36:51.853Z,4.90
2022-08-18T16:07:45.357Z,6.47
2022-08-18T16:10:13.194Z,6.90
2022-08-18T16:12:45.685Z,7.10
2022-08-18T16:17:46.074Z,6.97
2022-08-18T16:20:15.064Z,7.10
2022-08-18T16:22:42.398Z,6.50
2022-08-18T16:25:09.927Z,7.47
2022-08-18T16:27:41.052Z,7.40
2022-08-18T16:30:08.868Z,6.60
2022-08-18T16:32:36.024Z,6.70
2022-08-18T16:35:03.749Z,6.93
2022-08-18T16:37:30.974Z,7.80
2022-08-18T16:39:58.745Z,7.10
2022-08-18T16:42:25.946Z,7.43
2022-08-18T16:44:53.071Z,7.03
2022-08-18T16:47:20.194Z,7.33
2022-08-18T16:49:51.116Z,7.60
2022-08-18T16:52:19.645Z,7.10
2022-08-18T16:54:47.618Z,7.67
2022-08-18T16:57:54.801Z,7.10
2022-08-18T17:00:41.868Z,7.00
2022-08-18T17:03:28.726Z,7.23
2022-08-18T17:06:06.906Z,8.00
2022-08-18T17:08:34.322Z,7.20
2022-08-18T17:11:02.271Z,7.27
2022-08-18T17:13:29.752Z,7.30
2022-08-18T17:15:57.278Z,7.17
2022-08-18T17:18:24.567Z,7.27
2022-08-18T17:20:52.328Z,7.60
2022-08-18T17:23:22.574Z,7.70
2022-08-18T17:25:50.300Z,7.77
2022-08-18T17:28:19.686Z,7.40
2022-08-18T17:30:51.937Z,7.67
2022-08-18T17:33:25.068Z,26.23
2022-08-18T17:35:54.131Z,8.63
2022-08-18T17:38:32.503Z,8.47
2022-08-18T17:40:59.983Z,8.30
2022-08-18T17:43:30.141Z,7.77
2022-08-18T17:46:09.642Z,7.53
2022-08-18T17:48:43.316Z,7.33
2022-08-18T17:51:37.349Z,7.27
2022-08-18T17:54:15.790Z,7.07
2022-08-18T17:56:45.211Z,7.30
2022-08-18T17:59:46.546Z,7.03
2022-08-18T18:02:08.751Z,7.07
2022-08-18T18:04:56.219Z,7.00
2022-08-18T18:07:28.403Z,7.73
2022-08-18T18:09:58.474Z,7.33
2022-08-18T18:12:28.509Z,7.80
2022-08-18T18:14:55.914Z,7.40
2022-08-18T18:17:30.990Z,7.80
2022-08-18T18:20:15.770Z,7.50
2022-08-18T18:22:44.519Z,8.40
2022-08-18T18:25:12.881Z,8.53
2022-08-18T18:27:47.196Z,8.53
2022-08-18T18:30:15.661Z,7.43
2022-08-18T18:32:58.875Z,8.37
2022-08-18T18:35:31.338Z,8.10
2022-08-18T18:38:01.397Z,9.30
2022-08-18T18:40:28.543Z,8.50
2022-08-18T18:42:56.497Z,9.33
2022-08-18T18:45:28.671Z,7.90
2022-08-18T18:48:00.328Z,8.40
2022-08-18T18:50:27.489Z,8.47
2022-08-18T18:53:09.109Z,8.27
2022-08-18T18:55:41.258Z,8.53
2022-08-18T18:58:33.278Z,9.10
2022-08-18T19:01:03.038Z,8.47
2022-08-18T19:03:36.328Z,9.03
2022-08-18T19:06:06.180Z,9.10
2022-08-18T19:08:36.078Z,8.73
2022-08-18T19:11:18.065Z,8.80
2022-08-18T19:13:54.309Z,9.47
2022-08-18T19:16:25.648Z,9.10
2022-08-18T19:19:37.051Z,9.30
2022-08-18T19:22:08.995Z,8.63
2022-08-18T19:24:46.445Z,8.80
2022-08-18T19:27:23.341Z,8.67
2022-08-18T19:29:52.599Z,8.70
2022-08-18T19:32:24.927Z,8.50
2022-08-18T19:34:55.664Z,8.53
2022-08-18T19:37:40.343Z,8.53
2022-08-18T19:40:34.443Z,7.83
2022-08-18T19:43:08.720Z,8.10
2022-08-18T19:45:44.839Z,7.73
2022-08-18T19:48:32.390Z,7.30
2022-08-18T19:51:04.994Z,7.50
2022-08-18T19:53:39.343Z,8.63
2022-08-18T19:56:41.935Z,7.10
2022-08-18T19:59:23.987Z,7.57
2022-08-18T20:01:59.387Z,7.40
2022-08-18T20:04:45.099Z,7.20
2022-08-18T20:07:12.221Z,7.30
2022-08-18T20:09:45.333Z,7.17
2022-08-18T20:12:14.690Z,7.50
2022-08-18T20:14:44.849Z,7.77
2022-08-18T20:17:22.960Z,7.37
2022-08-18T20:19:53.185Z,7.20
2022-08-18T20:22:24.680Z,7.57
2022-08-18T20:24:53.621Z,7.53
2022-08-18T20:27:35.903Z,8.43
2022-08-18T20:30:22.131Z,7.90
2022-08-18T20:33:08.077Z,7.60
2022-08-18T20:35:46.820Z,7.73
2022-08-18T20:38:18.750Z,8.20
2022-08-18T20:40:47.777Z,7.73
2022-08-18T20:43:29.234Z,7.60
2022-08-18T20:46:16.139Z,7.77
2022-08-18T20:49:19.330Z,7.90
2022-08-18T20:52:06.420Z,7.80
2022-08-18T20:54:57.816Z,7.13
2022-08-18T20:57:26.871Z,7.47
2022-08-18T21:00:02.161Z,7.27
2022-08-18T21:02:31.361Z,8.20
2022-08-18T21:05:00.739Z,7.17
2022-08-18T21:07:37.031Z,7.23
2022-08-18T21:10:12.917Z,7.77
2022-08-18T21:12:40.735Z,7.50
2022-08-18T21:15:20.704Z,7.50
2022-08-18T21:17:57.202Z,8.10
2022-08-18T21:20:24.899Z,7.40
2022-08-18T21:23:02.506Z,7.93
2022-08-18T21:25:32.429Z,7.83
2022-08-18T21:28:00.050Z,7.67
2022-08-18T21:30:28.276Z,7.60
2022-08-18T21:32:55.480Z,8.10
2022-08-18T21:35:28.591Z,7.57
2022-08-18T21:38:03.644Z,7.37
2022-08-18T21:40:42.550Z,8.40
2022-08-18T21:43:10.755Z,7.90
2022-08-18T21:45:47.468Z,8.00
2022-08-18T21:48:15.638Z,7.47
2022-08-18T21:50:50.312Z,8.03
2022-08-18T21:53:20.644Z,8.00
2022-08-18T21:55:50.071Z,7.50
2022-08-18T21:58:32.675Z,7.97
2022-08-18T22:01:07.662Z,7.70
2022-08-18T22:03:36.369Z,7.90
2022-08-18T22:06:13.657Z,7.77
2022-08-18T22:08:51.192Z,7.83
2022-08-18T22:11:59.461Z,8.07
2022-08-18T22:14:36.248Z,7.77
2022-08-18T22:17:24.427Z,8.23
2022-08-18T22:19:51.776Z,8.10
2022-08-18T22:22:39.105Z,8.50
2022-08-18T22:25:06.770Z,7.97
2022-08-18T22:27:33.964Z,8.27
2022-08-18T22:30:04.197Z,8.47
2022-08-18T22:32:33.374Z,8.17
2022-08-18T22:35:00.541Z,8.53
2022-08-18T22:37:30.211Z,8.43
2022-08-18T22:40:06.171Z,8.20
2022-08-18T22:42:34.070Z,7.93
2022-08-18T22:45:04.986Z,8.30
2022-08-18T22:47:34.163Z,8.70
2022-08-18T22:50:11.139Z,8.13
2022-08-18T22:52:41.265Z,8.17
2022-08-18T22:55:09.834Z,8.13
2022-08-18T22:57:37.850Z,7.80
2022-08-18T23:00:09.139Z,8.37
2022-08-18T23:02:37.532Z,7.83
2022-08-18T23:05:05.031Z,8.63
2022-08-18T23:07:32.592Z,8.60
2022-08-18T23:09:59.962Z,7.87
2022-08-18T23:12:27.130Z,8.50
2022-08-18T23:14:54.933Z,8.20
2022-08-18T23:17:22.863Z,8.00
2022-08-18T23:19:52.202Z,8.20
2022-08-18T23:22:19.738Z,7.77
2022-08-18T23:24:48.423Z,8.13
2022-08-18T23:27:15.850Z,8.40
2022-08-18T23:29:42.989Z,8.23
2022-08-18T23:32:10.132Z,7.80
2022-08-18T23:34:37.574Z,7.93
2022-08-18T23:37:05.227Z,7.73
2022-08-18T23:39:33.370Z,7.93
2022-08-18T23:42:00.937Z,7.83
2022-08-18T23:44:28.255Z,8.13
2022-08-18T23:46:55.966Z,7.80
2022-08-18T23:49:23.310Z,7.97
2022-08-18T23:51:54.197Z,8.37
2022-08-18T23:54:22.987Z,7.60
2022-08-18T23:56:50.612Z,7.80
2022-08-18T23:59:18.644Z,7.63
